createdAt,value
2022-09-05T00:02:26.180Z,38.95
2022-09-05T00:05:19.846Z,40.72
2022-09-05T00:08:19.948Z,39.65
2022-09-05T00:11:42.066Z,35.05
2022-09-05T00:15:15.247Z,41.92
2022-09-05T00:18:47.041Z,43.42
2022-09-05T00:24:22.715Z,39.92
2022-09-05T00:24:43.550Z,41.97
2022-09-05T00:27:45.742Z,37.30
2022-09-05T00:31:50.908Z,43.65
2022-09-05T00:33:38.768Z,42.00
2022-09-05T00:36:44.168Z,36.10
2022-09-05T00:39:28.123Z,43.08
2022-09-05T00:42:09.951Z,41.60
2022-09-05T00:45:01.104Z,42.15
2022-09-05T00:48:01.213Z,44.97
2022-09-05T00:50:56.124Z,44.85
2022-09-05T00:53:52.281Z,50.50
2022-09-05T00:57:01.350Z,45.38
2022-09-05T01:00:02.785Z,56.30
2022-09-05T01:03:11.995Z,49.33
2022-09-05T01:06:17.611Z,48.95
2022-09-05T01:09:26.772Z,46.88
2022-09-05T01:12:24.773Z,42.55
2022-09-05T01:15:22.447Z,53.45
2022-09-05T01:18:29.202Z,53.30
2022-09-05T01:21:38.339Z,52.90
2022-09-05T01:24:45.138Z,47.72
2022-09-05T01:28:44.625Z,42.83
2022-09-05T01:31:03.712Z,47.67
2022-09-05T01:33:56.074Z,56.28
2022-09-05T01:37:05.237Z,49.78
2022-09-05T01:40:14.715Z,47.78
2022-09-05T01:43:17.781Z,44.78
2022-09-05T01:46:30.338Z,47.90
2022-09-05T01:49:18.485Z,45.63
2022-09-05T01:52:28.217Z,54.72
2022-09-05T01:58:29.809Z,47.45
2022-09-05T02:01:25.357Z,45.80
2022-09-05T02:04:32.910Z,48.17
2022-09-05T02:07:30.881Z,46.65
2022-09-05T02:10:30.149Z,41.38
2022-09-05T02:13:30.802Z,46.15
2022-09-05T02:16:24.451Z,44.90
2022-09-05T02:19:11.497Z,48.60
2022-09-05T02:21:56.192Z,43.22
2022-09-05T02:24:40.068Z,35.42
2022-09-05T02:27:43.596Z,38.78
2022-09-05T02:30:25.247Z,42.47
2022-09-05T02:33:12.831Z,42.60
2022-09-05T02:36:14.375Z,36.83
2022-09-05T02:40:06.193Z,46.10
2022-09-05T02:45:08.932Z,37.67
2022-09-05T02:45:25.803Z,39.88
2022-09-05T02:48:16.239Z,41.70
2022-09-05T02:57:29.659Z,38.05
2022-09-05T02:57:34.407Z,41.70
2022-09-05T02:58:08.092Z,43.65
2022-09-05T03:00:44.247Z,32.63
2022-09-05T03:03:40.037Z,40.88
2022-09-05T03:06:46.067Z,35.80
2022-09-05T03:09:46.376Z,35.97
2022-09-05T03:12:47.093Z,40.28
2022-09-05T03:15:49.967Z,32.78
2022-09-05T03:19:01.994Z,39.22
2022-09-05T03:22:24.260Z,41.15
2022-09-05T03:25:29.315Z,40.95
2022-09-05T03:28:38.206Z,36.35
2022-09-05T03:31:39.794Z,42.60
2022-09-05T03:34:41.325Z,39.33
2022-09-05T03:37:49.847Z,35.75
2022-09-05T03:40:57.727Z,36.95
2022-09-05T03:44:00.720Z,39.28
2022-09-05T03:46:55.650Z,27.88
2022-09-05T03:51:58.913Z,38.20
2022-09-05T03:57:14.835Z,30.35
2022-09-05T03:57:16.678Z,33.90
2022-09-05T03:59:51.256Z,34.90
2022-09-05T04:05:57.251Z,30.48
2022-09-05T04:08:17.422Z,31.60
2022-09-05T04:08:43.194Z,33.83
2022-09-05T04:11:30.677Z,39.60
2022-09-05T04:14:10.791Z,32.78
2022-09-05T04:16:58.518Z,30.25
2022-09-05T04:19:49.995Z,42.88
2022-09-05T04:22:54.658Z,33.15
2022-09-05T04:26:01.422Z,38.38
2022-09-05T04:29:25.767Z,39.45
2022-09-05T04:32:18.578Z,34.65
2022-09-05T04:35:06.287Z,30.63
2022-09-05T04:37:57.318Z,33.58
2022-09-05T04:40:44.012Z,29.63
2022-09-05T04:43:30.531Z,30.17
2022-09-05T04:46:30.144Z,31.13
2022-09-05T04:49:16.376Z,23.67
2022-09-05T04:52:11.245Z,25.80
2022-09-05T04:55:03.829Z,28.52
2022-09-05T04:57:51.574Z,26.90
2022-09-05T05:05:58.741Z,33.53
2022-09-05T05:06:08.726Z,22.23
2022-09-05T05:06:46.375Z,22.02
2022-09-05T05:09:30.127Z,25.95
2022-09-05T05:17:53.759Z,25.30
2022-09-05T05:18:12.508Z,24.58
2022-09-05T05:18:41.224Z,23.08
2022-09-05T05:21:22.385Z,23.77
2022-09-05T05:24:13.897Z,103.60
2022-09-05T05:26:57.089Z,31.77
2022-09-05T05:29:41.423Z,25.65
2022-09-05T05:32:31.596Z,17.02
2022-09-05T05:35:14.930Z,17.17
2022-09-05T05:37:52.953Z,17.02
2022-09-05T05:40:29.087Z,17.27
2022-09-05T05:43:18.591Z,15.52
2022-09-05T05:45:49.235Z,16.95
2022-09-05T05:48:35.352Z,14.27
2022-09-05T05:52:01.168Z,13.65
2022-09-05T05:55:34.008Z,13.73
2022-09-05T05:58:00.943Z,14.85
2022-09-05T06:01:21.972Z,12.75
2022-09-05T06:07:28.148Z,19.13
2022-09-05T06:14:51.067Z,12.10
2022-09-05T06:15:05.030Z,11.80
2022-09-05T06:17:11.348Z,12.25
2022-09-05T06:21:56.690Z,16.35
2022-09-05T06:23:40.062Z,13.73
2022-09-05T06:26:36.617Z,13.05
2022-09-05T06:29:18.944Z,24.10
2022-09-05T06:32:18.334Z,41.28
2022-09-05T06:35:13.348Z,30.23
2022-09-05T06:38:10.172Z,29.15
2022-09-05T06:41:18.468Z,36.90
2022-09-05T06:44:19.389Z,29.70
2022-09-05T06:47:22.548Z,28.95
2022-09-05T06:50:26.847Z,31.30
2022-09-05T06:53:29.145Z,28.92
2022-09-05T06:56:25.850Z,37.47
2022-09-05T06:59:32.305Z,28.45
2022-09-05T07:02:14.484Z,37.60
2022-09-05T07:05:37.236Z,26.50
2022-09-05T07:08:09.354Z,23.13
2022-09-05T07:11:16.302Z,26.48
2022-09-05T07:14:26.328Z,24.58
2022-09-05T07:17:08.040Z,19.17
2022-09-05T07:19:59.584Z,22.48
2022-09-05T07:22:47.344Z,18.48
2022-09-05T07:25:26.425Z,23.75
2022-09-05T07:28:26.669Z,24.92
2022-09-05T07:31:09.502Z,40.58
2022-09-05T07:33:43.377Z,24.60
2022-09-05T07:36:22.100Z,25.38
2022-09-05T07:39:25.257Z,29.40
2022-09-05T07:41:55.566Z,29.95
2022-09-05T07:44:33.492Z,32.58
2022-09-05T07:47:18.866Z,31.25
2022-09-05T07:50:42.855Z,26.45
2022-09-05T07:56:47.440Z,27.85
2022-09-05T07:56:51.657Z,32.08
2022-09-05T07:58:43.922Z,24.95
2022-09-05T08:01:16.623Z,37.50
2022-09-05T08:03:47.234Z,33.53
2022-09-05T08:06:27.472Z,35.25
2022-09-05T08:10:05.844Z,26.30
2022-09-05T08:12:30.131Z,33.63
2022-09-05T08:15:25.098Z,24.02
2022-09-05T08:18:09.806Z,19.27
2022-09-05T08:21:00.006Z,21.42
2022-09-05T08:23:49.639Z,16.27
2022-09-05T08:26:44.052Z,19.48
2022-09-05T08:29:43.336Z,18.13
2022-09-05T08:32:35.473Z,16.70
2022-09-05T08:35:22.070Z,26.42
2022-09-05T08:37:53.639Z,18.55
2022-09-05T08:40:44.979Z,13.75
2022-09-05T08:46:36.944Z,12.27
2022-09-05T08:46:50.213Z,12.95
2022-09-05T08:52:47.746Z,16.88
2022-09-05T08:55:47.554Z,18.15
2022-09-05T08:58:34.517Z,15.77
2022-09-05T09:02:14.673Z,9.88
2022-09-05T09:05:14.198Z,15.02
2022-09-05T09:08:02.493Z,13.95
2022-09-05T09:11:07.583Z,17.75
2022-09-05T09:14:29.483Z,13.18
2022-09-05T09:17:26.094Z,16.15
2022-09-05T09:20:14.962Z,11.80
2022-09-05T09:23:06.076Z,12.73
2022-09-05T09:25:48.614Z,22.35
2022-09-05T09:28:50.078Z,16.90
2022-09-05T09:31:39.266Z,15.48
2022-09-05T09:34:26.129Z,17.77
2022-09-05T09:37:19.865Z,20.77
2022-09-05T09:40:34.882Z,14.07
2022-09-05T09:43:19.818Z,22.15
2022-09-05T09:46:20.669Z,17.48
2022-09-05T09:49:22.566Z,21.13
2022-09-05T09:52:32.142Z,21.00
2022-09-05T09:55:43.066Z,22.92
2022-09-05T09:58:42.574Z,16.58
2022-09-05T10:01:37.178Z,18.52
2022-09-05T10:10:39.121Z,20.88
2022-09-05T10:10:49.592Z,18.95
2022-09-05T10:14:49.450Z,22.67
2022-09-05T10:17:54.746Z,19.73
2022-09-05T10:21:15.698Z,16.85
2022-09-05T10:24:24.049Z,22.05
2022-09-05T10:27:25.115Z,20.58
2022-09-05T10:30:13.865Z,15.80
2022-09-05T10:35:07.807Z,21.02
2022-09-05T10:36:26.857Z,18.13
2022-09-05T10:39:23.550Z,19.38
2022-09-05T10:42:04.458Z,19.85
2022-09-05T10:44:50.270Z,21.02
2022-09-05T10:47:58.010Z,17.00
2022-09-05T10:50:47.861Z,17.52
2022-09-05T10:53:39.036Z,18.25
2022-09-05T10:56:23.990Z,20.67
2022-09-05T11:00:58.034Z,26.15
2022-09-05T11:02:27.234Z,21.50
2022-09-05T11:05:28.823Z,30.98
2022-09-05T11:08:08.939Z,25.58
2022-09-05T11:10:56.583Z,22.00
2022-09-05T11:13:48.163Z,28.92
2022-09-05T11:16:41.107Z,30.20
2022-09-05T11:19:25.047Z,27.88
2022-09-05T11:22:22.105Z,24.65
2022-09-05T11:25:00.058Z,18.17
2022-09-05T11:27:39.347Z,31.45
2022-09-05T11:30:29.864Z,20.52
2022-09-05T11:39:47.981Z,20.92
2022-09-05T11:39:57.507Z,24.50
2022-09-05T11:40:31.497Z,25.50
2022-09-05T11:43:32.492Z,27.35
2022-09-05T11:46:33.613Z,20.50
2022-09-05T11:49:34.523Z,23.08
2022-09-05T11:52:43.040Z,25.00
2022-09-05T11:55:44.727Z,22.98
2022-09-05T11:58:44.908Z,29.05
2022-09-05T12:01:41.679Z,29.20
2022-09-05T12:04:45.776Z,29.02
2022-09-05T12:07:50.062Z,20.88
2022-09-05T12:10:46.240Z,32.30
2022-09-05T12:13:42.624Z,20.67
2022-09-05T12:16:40.787Z,30.25
2022-09-05T12:19:39.570Z,24.05
2022-09-05T12:22:35.665Z,33.80
2022-09-05T12:27:36.663Z,58.53
2022-09-05T12:29:27.902Z,64.25
2022-09-05T12:32:36.413Z,44.28
2022-09-05T12:36:07.866Z,30.15
2022-09-05T12:40:25.476Z,30.75
2022-09-05T12:41:36.612Z,27.15
2022-09-05T12:44:36.381Z,27.08
2022-09-05T12:46:10.951Z,45.90
2022-09-05T12:49:06.988Z,40.78
2022-09-05T12:51:47.716Z,47.70
2022-09-05T12:54:35.885Z,36.88
2022-09-05T13:02:56.639Z,30.52
2022-09-05T13:03:09.051Z,36.30
2022-09-05T13:03:35.684Z,29.73
2022-09-05T13:06:24.759Z,33.58
2022-09-05T13:09:13.016Z,29.63
2022-09-05T13:14:56.693Z,38.03
2022-09-05T13:15:23.318Z,44.60
2022-09-05T13:18:05.918Z,44.33
2022-09-05T13:20:41.358Z,44.33
2022-09-05T13:23:32.734Z,44.42
2022-09-05T13:26:28.474Z,45.90
2022-09-05T13:29:11.023Z,51.85
2022-09-05T13:37:58.528Z,45.88
2022-09-05T13:38:17.892Z,36.67
2022-09-05T13:38:28.870Z,39.50
2022-09-05T13:40:52.778Z,38.45
2022-09-05T13:43:40.300Z,31.92
2022-09-05T13:46:26.807Z,36.67
2022-09-05T13:49:27.699Z,43.75
2022-09-05T13:52:28.012Z,43.95
2022-09-05T13:55:35.589Z,44.88
2022-09-05T13:58:14.191Z,38.85
2022-09-05T14:01:20.068Z,44.08
2022-09-05T14:07:46.272Z,38.65
2022-09-05T14:10:39.546Z,39.88
2022-09-05T14:13:27.224Z,35.83
2022-09-05T14:16:14.225Z,42.20
2022-09-05T14:18:59.979Z,58.40
2022-09-05T14:21:33.928Z,40.83
2022-09-05T14:24:22.017Z,42.17
2022-09-05T14:27:31.849Z,41.22
2022-09-05T14:30:44.275Z,36.58
2022-09-05T14:37:36.685Z,34.78
2022-09-05T14:37:45.591Z,46.00
2022-09-05T14:40:06.645Z,59.85
2022-09-05T14:43:26.823Z,47.05
2022-09-05T14:46:33.667Z,45.45
2022-09-05T14:49:34.048Z,44.05
2022-09-05T14:52:35.553Z,44.78
2022-09-05T14:55:20.440Z,40.67
2022-09-05T15:02:54.234Z,46.60
2022-09-05T15:02:57.751Z,42.88
2022-09-05T15:06:44.317Z,45.45
2022-09-05T15:12:14.375Z,37.72
2022-09-05T15:12:38.581Z,29.38
2022-09-05T15:15:21.186Z,31.80
2022-09-05T15:17:55.297Z,34.47
2022-09-05T15:20:38.760Z,27.45
2022-09-05T15:23:17.834Z,28.27
2022-09-05T15:26:25.790Z,28.50
2022-09-05T15:29:13.613Z,26.77
2022-09-05T15:31:45.092Z,32.80
2022-09-05T15:34:28.656Z,39.25
2022-09-05T15:37:09.271Z,32.88
2022-09-05T15:39:50.112Z,31.65
2022-09-05T15:42:26.158Z,43.55
2022-09-05T15:45:11.064Z,35.13
2022-09-05T15:47:47.516Z,35.92
2022-09-05T15:50:23.027Z,34.35
2022-09-05T15:52:56.217Z,35.15
2022-09-05T15:55:28.865Z,32.30
2022-09-05T15:58:04.423Z,31.42
2022-09-05T16:00:46.158Z,36.83
2022-09-05T16:05:16.371Z,31.13
2022-09-05T16:10:36.900Z,37.05
2022-09-05T16:10:43.466Z,30.60
2022-09-05T16:12:47.425Z,35.50
2022-09-05T16:17:36.375Z,27.48
2022-09-05T16:23:17.780Z,38.95
2022-09-05T16:23:26.371Z,32.38
2022-09-05T16:24:34.886Z,43.75
2022-09-05T16:27:16.556Z,37.50
2022-09-05T16:29:50.573Z,33.42
2022-09-05T16:32:28.007Z,35.20
2022-09-05T16:35:02.066Z,30.58
2022-09-05T16:37:42.855Z,32.83
2022-09-05T16:40:25.579Z,30.85
2022-09-05T16:43:20.227Z,27.27
2022-09-05T16:46:18.029Z,26.40
2022-09-05T16:49:16.628Z,29.48
2022-09-05T16:51:50.571Z,34.72
2022-09-05T16:54:48.540Z,34.58
2022-09-05T16:57:32.880Z,23.30
2022-09-05T17:00:04.373Z,35.38
2022-09-05T17:03:03.366Z,25.67
2022-09-05T17:05:49.125Z,38.83
2022-09-05T17:08:31.851Z,29.08
2022-09-05T17:11:13.864Z,39.15
2022-09-05T17:14:00.649Z,37.47
2022-09-05T17:16:44.707Z,42.78
2022-09-05T17:19:40.384Z,31.20
2022-09-05T17:27:53.887Z,26.88
2022-09-05T17:29:26.138Z,31.30
2022-09-05T17:29:28.936Z,31.88
2022-09-05T17:31:56.144Z,38.10
2022-09-05T17:34:49.292Z,37.92
2022-09-05T17:38:08.007Z,40.42
2022-09-05T17:41:13.441Z,44.58
2022-09-05T17:43:44.699Z,38.17
2022-09-05T17:46:28.409Z,43.33
2022-09-05T17:49:17.605Z,35.72
2022-09-05T17:52:20.165Z,35.50
2022-09-05T17:54:54.581Z,40.45
2022-09-05T17:57:37.534Z,39.25
2022-09-05T18:00:47.616Z,37.08
2022-09-05T18:04:16.436Z,39.03
2022-09-05T18:10:05.967Z,36.25
2022-09-05T18:13:12.957Z,37.65
2022-09-05T18:16:14.683Z,34.83
2022-09-05T18:19:28.028Z,39.47
2022-09-05T18:22:08.525Z,39.70
2022-09-05T18:25:13.883Z,35.60
2022-09-05T18:28:09.205Z,38.90
2022-09-05T18:30:40.236Z,40.05
2022-09-05T18:33:53.910Z,35.97
2022-09-05T18:36:35.468Z,38.00
2022-09-05T18:39:40.043Z,38.53
2022-09-05T18:42:25.867Z,36.55
2022-09-05T18:45:16.152Z,39.92
2022-09-05T18:47:57.311Z,42.78
2022-09-05T18:50:36.371Z,35.80
2022-09-05T18:53:13.080Z,38.00
2022-09-05T18:56:10.699Z,33.38
2022-09-05T18:59:10.271Z,33.78
2022-09-05T19:02:06.065Z,34.47
2022-09-05T19:04:53.452Z,32.60
2022-09-05T19:07:34.394Z,32.38
2022-09-05T19:10:36.012Z,28.95
2022-09-05T19:13:23.688Z,35.80
2022-09-05T19:16:34.976Z,28.77
2022-09-05T19:19:17.715Z,28.05
2022-09-05T19:23:08.031Z,24.17
2022-09-05T19:24:55.081Z,28.60
2022-09-05T19:47:36.824Z,26.88
2022-09-05T19:47:38.545Z,24.83
2022-09-05T19:48:29.312Z,24.15
2022-09-05T19:51:21.442Z,26.63
2022-09-05T19:54:04.630Z,19.13
2022-09-05T19:56:49.319Z,25.50
2022-09-05T19:59:25.188Z,22.13
2022-09-05T20:01:56.528Z,25.92
2022-09-05T20:04:29.001Z,30.20
2022-09-05T20:06:59.420Z,24.50
2022-09-05T20:09:30.155Z,32.40
2022-09-05T20:12:01.928Z,24.58
2022-09-05T20:14:37.863Z,25.92
2022-09-05T20:17:25.227Z,21.02
2022-09-05T20:20:15.135Z,22.70
2022-09-05T20:25:42.983Z,31.20
2022-09-05T20:28:18.102Z,57.53
2022-09-05T20:30:53.195Z,54.90
2022-09-05T20:33:42.219Z,59.67
2022-09-05T20:40:32.393Z,47.43
2022-09-05T20:43:22.463Z,37.15
2022-09-05T20:43:35.265Z,34.05
2022-09-05T20:45:06.047Z,26.63
2022-09-05T20:53:17.382Z,27.33
2022-09-05T20:54:13.743Z,53.38
2022-09-05T20:54:15.239Z,49.40
2022-09-05T20:56:35.295Z,44.63
2022-09-05T20:59:05.709Z,37.65
2022-09-05T21:01:39.962Z,28.45
2022-09-05T21:04:10.701Z,25.05
2022-09-05T21:06:43.424Z,50.83
2022-09-05T21:09:31.346Z,29.73
2022-09-05T21:12:13.546Z,23.60
2022-09-05T21:15:25.574Z,23.55
2022-09-05T21:18:03.957Z,27.38
2022-09-05T21:20:34.680Z,26.60
2022-09-05T21:23:24.341Z,30.08
2022-09-05T21:25:57.832Z,26.17
2022-09-05T21:28:36.765Z,29.27
2022-09-05T21:31:16.169Z,27.23
2022-09-05T21:33:47.759Z,27.02
2022-09-05T21:36:18.890Z,26.20
2022-09-05T21:38:49.180Z,26.58
2022-09-05T21:41:20.045Z,24.95
2022-09-05T21:47:47.404Z,22.58
2022-09-05T21:47:48.294Z,21.38
2022-09-05T21:49:35.573Z,26.02
2022-09-05T21:52:10.209Z,27.30
2022-09-05T21:59:18.986Z,33.13
2022-09-05T21:59:21.321Z,31.35
2022-09-05T22:00:27.432Z,33.00
2022-09-05T22:02:57.997Z,27.60
2022-09-05T22:05:29.584Z,24.67
2022-09-05T22:08:02.512Z,25.38
2022-09-05T22:10:45.358Z,33.53
2022-09-05T22:13:22.940Z,30.48
2022-09-05T22:15:53.948Z,31.17
2022-09-05T22:18:24.319Z,28.92
2022-09-05T22:21:33.894Z,30.75
2022-09-05T22:23:49.027Z,31.35
2022-09-05T22:26:21.199Z,34.95
2022-09-05T22:28:52.033Z,31.30
2022-09-05T22:31:23.737Z,35.05
2022-09-05T22:33:54.168Z,39.08
2022-09-05T22:36:24.741Z,34.78
2022-09-05T22:38:56.731Z,28.20
2022-09-05T22:41:30.267Z,27.83
2022-09-05T22:44:01.559Z,27.30
2022-09-05T22:46:32.689Z,25.13
2022-09-05T22:49:03.177Z,30.67
2022-09-05T22:51:33.422Z,36.65
2022-09-05T22:54:06.428Z,26.30
2022-09-05T22:56:40.083Z,35.10
2022-09-05T22:59:13.059Z,32.28
2022-09-05T23:01:43.627Z,32.58
2022-09-05T23:04:14.038Z,33.85
2022-09-05T23:06:44.449Z,34.40
2022-09-05T23:09:14.804Z,25.63
2022-09-05T23:11:45.217Z,29.13
2022-09-05T23:14:15.536Z,37.78
2022-09-05T23:16:45.851Z,34.47
2022-09-05T23:19:16.247Z,27.88
2022-09-05T23:21:46.497Z,29.35
2022-09-05T23:24:16.919Z,24.77
2022-09-05T23:26:47.173Z,30.02
2022-09-05T23:29:17.637Z,38.13
2022-09-05T23:31:48.441Z,23.73
2022-09-05T23:34:19.203Z,31.27
2022-09-05T23:36:49.574Z,25.63
2022-09-05T23:39:19.866Z,25.90
2022-09-05T23:41:50.123Z,25.75
2022-09-05T23:44:20.608Z,23.67
2022-09-05T23:46:50.993Z,27.60
2022-09-05T23:49:22.261Z,31.75
2022-09-05T23:51:52.659Z,37.55
2022-09-05T23:54:23.092Z,29.02
2022-09-05T23:56:53.616Z,24.92
2022-09-05T23:59:24.286Z,30.55
